EJU58EC LFRS-HEGN
Flight info
| Callsign | EJU58EC |
|---|---|
| Flight time | N/A |
| Altitude | 35000 |
| Route | LUGEN UM184 TUPAR DCT DIDRU DCT ADATU DCT LERGA DCT TOZOT DCT OTROT DCT RETNO DCT KOLON DCT RAPUR DCT RATAP DCT BTA DCT DOKAR DCT SUNEV DCT PNZ DCT VEXUV DCT MALOG DCT EDOPA DCT PEVIR DCT DELER DCT AGNIS DCT CDC DCT BELIX DCT SALUN N705 MMA P751 DASUM Y234 FYM M872 BOPOB BOPOB1A |
| Aircraft | A320/M-SDE2E3FGHIJ1RWXYZ/LB1 |
Departure
| Time | N/A |
|---|---|
| Airport | Nantes Atlantique Airport (LFRS) |
Arrival
| Time | 2026-04-29 13:58 |
|---|---|
| Airport | Hurghada International Airport (HEGN) |
| Time | Latitude | Longitude | Altitude | Speed | Heading |
|---|---|---|---|---|---|
| 2026-04-29 13:45 | 27.37492 | 33.44173 | 16922 ft | 382 kts | 96° |
| 2026-04-29 13:45 | 27.37135 | 33.47180 | 16258 ft | 374 kts | 96° |
| 2026-04-29 13:45 | 27.36783 | 33.50031 | 15837 ft | 360 kts | 96° |
| 2026-04-29 13:46 | 27.36315 | 33.52768 | 15118 ft | 357 kts | 108° |
| 2026-04-29 13:46 | 27.35167 | 33.55245 | 14181 ft | 360 kts | 128° |
| 2026-04-29 13:46 | 27.33621 | 33.57438 | 13486 ft | 354 kts | 129° |
| 2026-04-29 13:46 | 27.32092 | 33.59582 | 12817 ft | 348 kts | 129° |
| 2026-04-29 13:47 | 27.30588 | 33.61687 | 12137 ft | 342 kts | 129° |
| 2026-04-29 13:47 | 27.29112 | 33.63749 | 11484 ft | 336 kts | 129° |
| 2026-04-29 13:47 | 27.27662 | 33.65783 | 10771 ft | 331 kts | 129° |
| 2026-04-29 13:47 | 27.26231 | 33.67791 | 10047 ft | 327 kts | 129° |
| 2026-04-29 13:48 | 27.24823 | 33.69763 | 9556 ft | 316 kts | 129° |
| 2026-04-29 13:48 | 27.23472 | 33.71652 | 9057 ft | 306 kts | 129° |
| 2026-04-29 13:48 | 27.22154 | 33.73496 | 8424 ft | 301 kts | 128° |
| 2026-04-29 13:48 | 27.20850 | 33.75324 | 7759 ft | 298 kts | 128° |
| 2026-04-29 13:49 | 27.19565 | 33.77129 | 7091 ft | 295 kts | 128° |
| 2026-04-29 13:49 | 27.18280 | 33.78917 | 6402 ft | 292 kts | 131° |
| 2026-04-29 13:49 | 27.16805 | 33.80422 | 5714 ft | 290 kts | 145° |
| 2026-04-29 13:49 | 27.15170 | 33.81723 | 5102 ft | 285 kts | 145° |
| 2026-04-29 13:50 | 27.13561 | 33.83011 | 4654 ft | 286 kts | 144° |
| 2026-04-29 13:50 | 27.11939 | 33.84308 | 4209 ft | 286 kts | 145° |
| 2026-04-29 13:50 | 27.10534 | 33.85427 | 3818 ft | 286 kts | 145° |
| 2026-04-29 13:50 | 27.08924 | 33.86712 | 3498 ft | 279 kts | 145° |
| 2026-04-29 13:51 | 27.07380 | 33.87952 | 3400 ft | 268 kts | 144° |
| 2026-04-29 13:51 | 27.05900 | 33.89141 | 3292 ft | 256 kts | 144° |
| 2026-04-29 13:51 | 27.04470 | 33.90286 | 3182 ft | 249 kts | 146° |
| 2026-04-29 13:51 | 27.02942 | 33.91054 | 3099 ft | 235 kts | 174° |
| 2026-04-29 13:52 | 27.01394 | 33.90830 | 3041 ft | 219 kts | 207° |
| 2026-04-29 13:52 | 27.00268 | 33.89848 | 3031 ft | 196 kts | 236° |
| 2026-04-29 13:52 | 26.99732 | 33.88546 | 2974 ft | 175 kts | 262° |
| 2026-04-29 13:52 | 26.99728 | 33.87265 | 2923 ft | 157 kts | 285° |
| 2026-04-29 13:53 | 27.00123 | 33.86175 | 2889 ft | 148 kts | 306° |
| 2026-04-29 13:53 | 27.00814 | 33.85347 | 2852 ft | 145 kts | 324° |
| 2026-04-29 13:53 | 27.01702 | 33.84862 | 2823 ft | 146 kts | 344° |
| 2026-04-29 13:53 | 27.02681 | 33.84573 | 2698 ft | 147 kts | 342° |
| 2026-04-29 13:54 | 27.03687 | 33.84278 | 2536 ft | 150 kts | 341° |
| 2026-04-29 13:54 | 27.04681 | 33.83985 | 2356 ft | 148 kts | 341° |
| 2026-04-29 13:54 | 27.05691 | 33.83687 | 2148 ft | 152 kts | 341° |
| 2026-04-29 13:54 | 27.06729 | 33.83380 | 1950 ft | 156 kts | 343° |
| 2026-04-29 13:55 | 27.07788 | 33.83069 | 1732 ft | 158 kts | 345° |
| 2026-04-29 13:55 | 27.08851 | 33.82756 | 1527 ft | 157 kts | 348° |
| 2026-04-29 13:55 | 27.09903 | 33.82446 | 1322 ft | 155 kts | 349° |
| 2026-04-29 13:55 | 27.10925 | 33.82143 | 1142 ft | 145 kts | 346° |
| 2026-04-29 13:56 | 27.11857 | 33.81868 | 934 ft | 134 kts | 347° |
| 2026-04-29 13:56 | 27.12749 | 33.81605 | 751 ft | 131 kts | 347° |
| 2026-04-29 13:56 | 27.13630 | 33.81346 | 581 ft | 131 kts | 347° |
| 2026-04-29 13:56 | 27.14508 | 33.81086 | 407 ft | 131 kts | 346° |
| 2026-04-29 13:57 | 27.15388 | 33.80822 | 238 ft | 131 kts | 346° |
| 2026-04-29 13:57 | 27.16273 | 33.80556 | 98 ft | 131 kts | 347° |
| 2026-04-29 13:57 | 27.17125 | 33.80315 | 49 ft | 111 kts | 345° |
| 2026-04-29 13:57 | 27.17542 | 33.80197 | 54 ft | 77 kts | 345° |
| 2026-04-29 13:58 | 27.17946 | 33.80072 | 54 ft | 28 kts | 346° |
| 2026-04-29 13:58 | 27.18142 | 33.80018 | 48 ft | 29 kts | 346° |
| 2026-04-29 13:58 | 27.18309 | 33.79969 | 49 ft | 25 kts | 345° |
| 2026-04-29 13:58 | 27.18446 | 33.79950 | 51 ft | 8 kts | 43° |
| 2026-04-29 13:59 | 27.18457 | 33.80003 | 50 ft | 7 kts | 78° |
| 2026-04-29 13:59 | 27.18465 | 33.80056 | 49 ft | 8 kts | 89° |
| 2026-04-29 13:59 | 27.18389 | 33.80114 | 51 ft | 16 kts | 165° |
| 2026-04-29 13:59 | 27.18290 | 33.80143 | 52 ft | 14 kts | 165° |
| 2026-04-29 14:00 | 27.18230 | 33.80160 | 52 ft | 14 kts | 166° |
| 2026-04-29 14:00 | 27.18180 | 33.80244 | 51 ft | 12 kts | 78° |
| 2026-04-29 14:00 | 27.18202 | 33.80328 | 58 ft | 0 kts | 55° |
| 2026-04-29 14:01 | 27.18208 | 33.80356 | 50 ft | 11 kts | 82° |
| 2026-04-29 14:01 | 27.18150 | 33.80431 | 54 ft | 14 kts | 156° |
| 2026-04-29 14:01 | 27.18063 | 33.80462 | 51 ft | 13 kts | 168° |
| 2026-04-29 14:01 | 27.18036 | 33.80468 | 52 ft | 0 kts | 168° |
| 2026-04-29 14:02 | 27.18034 | 33.80469 | 58 ft | 1 kts | 164° |
| 2026-04-29 14:02 | 27.18029 | 33.80490 | 55 ft | 6 kts | 82° |
| 2026-04-29 14:02 | 27.18053 | 33.80545 | 54 ft | 8 kts | 65° |
| 2026-04-29 14:02 | 27.18066 | 33.80577 | 53 ft | 1 kts | 65° |
| 2026-04-29 14:03 | 27.18069 | 33.80585 | 58 ft | 1 kts | 65° |
| 2026-04-29 14:03 | 27.18071 | 33.80588 | 58 ft | 0 kts | 65° |
| 2026-04-29 14:03 | 27.18071 | 33.80589 | 58 ft | 0 kts | 65° |